sensor_id;sensor_type;location;lat;lon;timestamp;temperature;humidity
5246;DHT22;54412;51.206;6.888;2023-08-07T00:00:42;14.50;99.90
5246;DHT22;54412;51.206;6.888;2023-08-07T00:03:08;14.50;99.90
5246;DHT22;54412;51.206;6.888;2023-08-07T00:05:34;14.60;99.90
5246;DHT22;54412;51.206;6.888;2023-08-07T00:08:00;14.50;99.90
5246;DHT22;54412;51.206;6.888;2023-08-07T00:10:26;14.50;99.90
5246;DHT22;54412;51.206;6.888;2023-08-07T00:12:52;14.50;99.90
5246;DHT22;54412;51.206;6.888;2023-08-07T00:15:18;14.50;99.90
5246;DHT22;54412;51.206;6.888;2023-08-07T00:17:43;14.50;99.90
5246;DHT22;54412;51.206;6.888;2023-08-07T00:20:09;14.60;99.90
5246;DHT22;54412;51.206;6.888;2023-08-07T00:22:35;14.50;99.90
5246;DHT22;54412;51.206;6.888;2023-08-07T00:25:01;14.50;99.90
5246;DHT22;54412;51.206;6.888;2023-08-07T00:27:26;14.50;99.90
5246;DHT22;54412;51.206;6.888;2023-08-07T00:29:52;14.60;99.90
5246;DHT22;54412;51.206;6.888;2023-08-07T00:32:18;14.60;99.90
5246;DHT22;54412;51.206;6.888;2023-08-07T00:34:44;14.50;99.90
5246;DHT22;54412;51.206;6.888;2023-08-07T00:37:10;14.40;99.90
5246;DHT22;54412;51.206;6.888;2023-08-07T00:39:35;14.50;99.90
5246;DHT22;54412;51.206;6.888;2023-08-07T00:42:01;14.50;99.90
5246;DHT22;54412;51.206;6.888;2023-08-07T00:44:27;14.50;99.90
5246;DHT22;54412;51.206;6.888;2023-08-07T00:46:53;14.50;99.90
5246;DHT22;54412;51.206;6.888;2023-08-07T00:49:20;14.50;99.90
5246;DHT22;54412;51.206;6.888;2023-08-07T00:51:46;14.60;99.90
5246;DHT22;54412;51.206;6.888;2023-08-07T00:54:15;14.50;99.90
5246;DHT22;54412;51.206;6.888;2023-08-07T00:56:45;14.40;99.90
5246;DHT22;54412;51.206;6.888;2023-08-07T00:59:15;14.50;99.90
5246;DHT22;54412;51.206;6.888;2023-08-07T01:01:41;14.60;99.90
5246;DHT22;54412;51.206;6.888;2023-08-07T01:04:07;14.60;99.90
5246;DHT22;54412;51.206;6.888;2023-08-07T01:06:32;14.60;99.90
5246;DHT22;54412;51.206;6.888;2023-08-07T01:08:58;14.60;99.90
5246;DHT22;54412;51.206;6.888;2023-08-07T01:14:18;14.50;99.90
5246;DHT22;54412;51.206;6.888;2023-08-07T01:17:01;14.50;99.90
5246;DHT22;54412;51.206;6.888;2023-08-07T01:19:31;14.50;99.90
5246;DHT22;54412;51.206;6.888;2023-08-07T01:22:13;14.60;99.90
5246;DHT22;54412;51.206;6.888;2023-08-07T01:24:41;14.50;99.90
5246;DHT22;54412;51.206;6.888;2023-08-07T01:33:08;14.60;99.90
5246;DHT22;54412;51.206;6.888;2023-08-07T01:35:41;14.50;99.90
5246;DHT22;54412;51.206;6.888;2023-08-07T01:38:11;14.50;99.90
5246;DHT22;54412;51.206;6.888;2023-08-07T01:40:42;14.50;99.90
5246;DHT22;54412;51.206;6.888;2023-08-07T01:43:09;14.50;99.90
5246;DHT22;54412;51.206;6.888;2023-08-07T01:45:35;14.50;99.90
5246;DHT22;54412;51.206;6.888;2023-08-07T01:48:01;14.50;99.90
5246;DHT22;54412;51.206;6.888;2023-08-07T01:50:26;14.50;99.90
5246;DHT22;54412;51.206;6.888;2023-08-07T01:52:53;14.40;99.90
5246;DHT22;54412;51.206;6.888;2023-08-07T01:55:20;14.50;99.90
5246;DHT22;54412;51.206;6.888;2023-08-07T01:57:46;14.60;99.90
5246;DHT22;54412;51.206;6.888;2023-08-07T02:00:12;14.50;99.90
5246;DHT22;54412;51.206;6.888;2023-08-07T02:02:38;14.50;99.90
5246;DHT22;54412;51.206;6.888;2023-08-07T02:05:04;14.50;99.90
5246;DHT22;54412;51.206;6.888;2023-08-07T02:07:31;14.30;99.90
5246;DHT22;54412;51.206;6.888;2023-08-07T02:09:57;14.20;99.90
5246;DHT22;54412;51.206;6.888;2023-08-07T02:12:23;14.00;99.90
5246;DHT22;54412;51.206;6.888;2023-08-07T02:14:50;14.00;99.90
5246;DHT22;54412;51.206;6.888;2023-08-07T02:17:16;14.20;99.90
5246;DHT22;54412;51.206;6.888;2023-08-07T02:19:42;14.10;99.90
5246;DHT22;54412;51.206;6.888;2023-08-07T02:22:07;14.20;99.90
5246;DHT22;54412;51.206;6.888;2023-08-07T02:24:33;14.00;99.90
5246;DHT22;54412;51.206;6.888;2023-08-07T02:26:59;13.90;99.90
5246;DHT22;54412;51.206;6.888;2023-08-07T02:29:24;13.80;99.90
5246;DHT22;54412;51.206;6.888;2023-08-07T02:31:50;13.90;99.90
5246;DHT22;54412;51.206;6.888;2023-08-07T02:34:16;13.90;99.90
5246;DHT22;54412;51.206;6.888;2023-08-07T02:36:41;14.00;99.90
5246;DHT22;54412;51.206;6.888;2023-08-07T02:39:07;13.90;99.90
5246;DHT22;54412;51.206;6.888;2023-08-07T02:41:33;14.00;99.90
5246;DHT22;54412;51.206;6.888;2023-08-07T02:43:58;14.00;99.90
5246;DHT22;54412;51.206;6.888;2023-08-07T02:46:24;13.90;99.90
5246;DHT22;54412;51.206;6.888;2023-08-07T02:48:50;13.90;99.90
5246;DHT22;54412;51.206;6.888;2023-08-07T02:51:15;14.00;99.90
5246;DHT22;54412;51.206;6.888;2023-08-07T02:53:41;13.90;99.90
5246;DHT22;54412;51.206;6.888;2023-08-07T02:56:07;13.80;99.90
5246;DHT22;54412;51.206;6.888;2023-08-07T02:58:32;13.80;99.90
5246;DHT22;54412;51.206;6.888;2023-08-07T03:01:06;13.80;99.90
5246;DHT22;54412;51.206;6.888;2023-08-07T03:03:32;13.90;99.90
5246;DHT22;54412;51.206;6.888;2023-08-07T03:05:58;14.00;99.90
5246;DHT22;54412;51.206;6.888;2023-08-07T03:08:23;14.00;99.90
5246;DHT22;54412;51.206;6.888;2023-08-07T03:10:57;13.90;99.90
5246;DHT22;54412;51.206;6.888;2023-08-07T03:13:24;14.00;99.90
5246;DHT22;54412;51.206;6.888;2023-08-07T03:15:59;14.00;99.90
5246;DHT22;54412;51.206;6.888;2023-08-07T03:18:25;13.80;99.90
5246;DHT22;54412;51.206;6.888;2023-08-07T03:20:51;13.90;99.90
5246;DHT22;54412;51.206;6.888;2023-08-07T03:23:16;14.00;99.90
5246;DHT22;54412;51.206;6.888;2023-08-07T03:25:42;14.10;99.90
5246;DHT22;54412;51.206;6.888;2023-08-07T03:28:08;14.10;99.90
5246;DHT22;54412;51.206;6.888;2023-08-07T03:30:33;14.00;99.90
5246;DHT22;54412;51.206;6.888;2023-08-07T03:32:59;14.00;99.90
5246;DHT22;54412;51.206;6.888;2023-08-07T03:35:25;14.00;99.90
5246;DHT22;54412;51.206;6.888;2023-08-07T03:37:50;14.10;99.90
5246;DHT22;54412;51.206;6.888;2023-08-07T03:40:16;14.20;99.90
5246;DHT22;54412;51.206;6.888;2023-08-07T03:42:42;14.10;99.90
5246;DHT22;54412;51.206;6.888;2023-08-07T03:45:08;14.20;99.90
5246;DHT22;54412;51.206;6.888;2023-08-07T03:47:34;14.20;99.90
5246;DHT22;54412;51.206;6.888;2023-08-07T03:49:59;14.10;99.90
5246;DHT22;54412;51.206;6.888;2023-08-07T03:52:25;14.10;99.90
5246;DHT22;54412;51.206;6.888;2023-08-07T03:54:50;14.00;99.90
5246;DHT22;54412;51.206;6.888;2023-08-07T03:57:16;14.00;99.90
5246;DHT22;54412;51.206;6.888;2023-08-07T03:59:42;14.10;99.90
5246;DHT22;54412;51.206;6.888;2023-08-07T04:02:07;14.10;99.90
5246;DHT22;54412;51.206;6.888;2023-08-07T04:04:33;14.10;99.90
5246;DHT22;54412;51.206;6.888;2023-08-07T04:06:59;14.10;99.90
5246;DHT22;54412;51.206;6.888;2023-08-07T04:09:24;14.10;99.90
5246;DHT22;54412;51.206;6.888;2023-08-07T04:11:50;14.10;99.90
5246;DHT22;54412;51.206;6.888;2023-08-07T04:14:16;14.20;99.90
5246;DHT22;54412;51.206;6.888;2023-08-07T04:16:41;14.00;99.90
5246;DHT22;54412;51.206;6.888;2023-08-07T04:19:07;14.10;99.90
5246;DHT22;54412;51.206;6.888;2023-08-07T04:21:33;14.00;99.90
5246;DHT22;54412;51.206;6.888;2023-08-07T04:23:59;14.10;99.90
5246;DHT22;54412;51.206;6.888;2023-08-07T04:26:33;14.10;99.90
5246;DHT22;54412;51.206;6.888;2023-08-07T04:28:59;14.20;99.90
5246;DHT22;54412;51.206;6.888;2023-08-07T04:31:25;14.10;99.90
5246;DHT22;54412;51.206;6.888;2023-08-07T04:33:51;14.10;99.90
5246;DHT22;54412;51.206;6.888;2023-08-07T04:36:16;14.00;99.90
5246;DHT22;54412;51.206;6.888;2023-08-07T04:38:42;14.00;99.90
5246;DHT22;54412;51.206;6.888;2023-08-07T04:41:07;14.00;99.90
5246;DHT22;54412;51.206;6.888;2023-08-07T04:43:33;13.90;99.90
5246;DHT22;54412;51.206;6.888;2023-08-07T04:46:00;13.90;99.90
5246;DHT22;54412;51.206;6.888;2023-08-07T04:48:25;13.90;99.90
5246;DHT22;54412;51.206;6.888;2023-08-07T04:50:51;14.00;99.90
5246;DHT22;54412;51.206;6.888;2023-08-07T04:53:17;14.10;99.90
5246;DHT22;54412;51.206;6.888;2023-08-07T04:55:43;14.00;99.90
5246;DHT22;54412;51.206;6.888;2023-08-07T04:58:08;14.00;99.90
5246;DHT22;54412;51.206;6.888;2023-08-07T05:00:34;13.90;99.90
5246;DHT22;54412;51.206;6.888;2023-08-07T05:03:01;14.00;99.90
5246;DHT22;54412;51.206;6.888;2023-08-07T05:05:27;13.90;99.90
5246;DHT22;54412;51.206;6.888;2023-08-07T05:07:54;13.80;99.90
5246;DHT22;54412;51.206;6.888;2023-08-07T05:10:20;13.90;99.90
5246;DHT22;54412;51.206;6.888;2023-08-07T05:12:46;13.90;99.90
5246;DHT22;54412;51.206;6.888;2023-08-07T05:15:12;13.90;99.90
5246;DHT22;54412;51.206;6.888;2023-08-07T05:17:37;13.80;99.90
5246;DHT22;54412;51.206;6.888;2023-08-07T05:20:03;13.90;99.90
5246;DHT22;54412;51.206;6.888;2023-08-07T05:22:30;14.00;99.90
5246;DHT22;54412;51.206;6.888;2023-08-07T05:24:56;14.10;99.90
5246;DHT22;54412;51.206;6.888;2023-08-07T05:27:22;14.10;99.90
5246;DHT22;54412;51.206;6.888;2023-08-07T05:29:47;13.80;99.90
5246;DHT22;54412;51.206;6.888;2023-08-07T05:32:14;13.90;99.90
5246;DHT22;54412;51.206;6.888;2023-08-07T05:34:40;14.10;99.90
5246;DHT22;54412;51.206;6.888;2023-08-07T05:37:07;14.10;99.90
5246;DHT22;54412;51.206;6.888;2023-08-07T05:39:34;13.90;99.90
5246;DHT22;54412;51.206;6.888;2023-08-07T05:42:00;13.80;99.90
5246;DHT22;54412;51.206;6.888;2023-08-07T05:44:27;13.90;99.90
5246;DHT22;54412;51.206;6.888;2023-08-07T05:46:53;14.00;99.90
5246;DHT22;54412;51.206;6.888;2023-08-07T05:49:19;13.80;99.90
5246;DHT22;54412;51.206;6.888;2023-08-07T05:51:46;13.80;99.90
5246;DHT22;54412;51.206;6.888;2023-08-07T05:54:12;13.80;99.90
5246;DHT22;54412;51.206;6.888;2023-08-07T05:56:37;13.80;99.90
5246;DHT22;54412;51.206;6.888;2023-08-07T05:59:04;13.70;99.90
5246;DHT22;54412;51.206;6.888;2023-08-07T06:01:29;13.70;99.90
5246;DHT22;54412;51.206;6.888;2023-08-07T06:03:58;13.80;99.90
5246;DHT22;54412;51.206;6.888;2023-08-07T06:06:27;13.70;99.90
5246;DHT22;54412;51.206;6.888;2023-08-07T06:08:55;13.70;99.90
5246;DHT22;54412;51.206;6.888;2023-08-07T06:11:21;13.70;99.90
5246;DHT22;54412;51.206;6.888;2023-08-07T06:13:47;13.60;99.90
5246;DHT22;54412;51.206;6.888;2023-08-07T06:16:13;13.60;99.90
5246;DHT22;54412;51.206;6.888;2023-08-07T06:18:39;13.60;99.90
5246;DHT22;54412;51.206;6.888;2023-08-07T06:21:04;13.50;99.90
5246;DHT22;54412;51.206;6.888;2023-08-07T06:23:33;13.60;99.90
5246;DHT22;54412;51.206;6.888;2023-08-07T06:25:59;13.70;99.90
5246;DHT22;54412;51.206;6.888;2023-08-07T06:28:29;13.70;99.90
5246;DHT22;54412;51.206;6.888;2023-08-07T06:31:02;13.70;99.90
5246;DHT22;54412;51.206;6.888;2023-08-07T06:33:31;13.70;99.90
5246;DHT22;54412;51.206;6.888;2023-08-07T06:35:57;13.70;99.90
5246;DHT22;54412;51.206;6.888;2023-08-07T06:38:23;13.70;99.90
5246;DHT22;54412;51.206;6.888;2023-08-07T06:40:49;13.70;99.90
5246;DHT22;54412;51.206;6.888;2023-08-07T06:43:14;13.70;99.90
5246;DHT22;54412;51.206;6.888;2023-08-07T06:45:40;13.80;99.90
5246;DHT22;54412;51.206;6.888;2023-08-07T06:48:05;13.80;99.90
5246;DHT22;54412;51.206;6.888;2023-08-07T06:50:31;13.80;99.90
5246;DHT22;54412;51.206;6.888;2023-08-07T06:52:57;13.70;99.90
5246;DHT22;54412;51.206;6.888;2023-08-07T06:55:23;13.90;99.90
5246;DHT22;54412;51.206;6.888;2023-08-07T06:57:48;13.90;99.90
5246;DHT22;54412;51.206;6.888;2023-08-07T07:00:15;13.90;99.90
5246;DHT22;54412;51.206;6.888;2023-08-07T07:02:41;13.90;99.90
5246;DHT22;54412;51.206;6.888;2023-08-07T07:05:07;13.90;99.90
5246;DHT22;54412;51.206;6.888;2023-08-07T07:07:32;13.90;99.90
5246;DHT22;54412;51.206;6.888;2023-08-07T07:09:58;13.80;99.90
5246;DHT22;54412;51.206;6.888;2023-08-07T07:12:26;13.80;99.90
5246;DHT22;54412;51.206;6.888;2023-08-07T07:14:52;13.80;99.90
5246;DHT22;54412;51.206;6.888;2023-08-07T07:17:18;13.80;99.90
5246;DHT22;54412;51.206;6.888;2023-08-07T07:19:44;13.80;99.90
5246;DHT22;54412;51.206;6.888;2023-08-07T07:22:10;13.80;99.90
5246;DHT22;54412;51.206;6.888;2023-08-07T07:24:35;13.90;99.90
5246;DHT22;54412;51.206;6.888;2023-08-07T07:27:01;13.90;99.90
5246;DHT22;54412;51.206;6.888;2023-08-07T07:29:27;13.80;99.90
5246;DHT22;54412;51.206;6.888;2023-08-07T07:31:52;13.80;99.90
5246;DHT22;54412;51.206;6.888;2023-08-07T07:34:20;13.80;99.90
5246;DHT22;54412;51.206;6.888;2023-08-07T07:36:46;13.80;99.90
5246;DHT22;54412;51.206;6.888;2023-08-07T07:39:12;13.90;99.90
5246;DHT22;54412;51.206;6.888;2023-08-07T07:41:38;13.90;99.90
5246;DHT22;54412;51.206;6.888;2023-08-07T07:44:03;13.80;99.90
5246;DHT22;54412;51.206;6.888;2023-08-07T07:46:29;13.90;99.90
5246;DHT22;54412;51.206;6.888;2023-08-07T07:48:57;13.90;99.90
5246;DHT22;54412;51.206;6.888;2023-08-07T07:51:23;13.90;99.90
5246;DHT22;54412;51.206;6.888;2023-08-07T07:53:49;13.90;99.90
5246;DHT22;54412;51.206;6.888;2023-08-07T07:56:14;13.90;99.90
5246;DHT22;54412;51.206;6.888;2023-08-07T07:58:40;13.90;99.90
5246;DHT22;54412;51.206;6.888;2023-08-07T08:01:07;14.00;99.90
5246;DHT22;54412;51.206;6.888;2023-08-07T08:03:33;14.00;99.90
5246;DHT22;54412;51.206;6.888;2023-08-07T08:05:59;14.20;99.90
5246;DHT22;54412;51.206;6.888;2023-08-07T08:08:25;14.30;99.90
5246;DHT22;54412;51.206;6.888;2023-08-07T08:10:51;14.30;99.90
5246;DHT22;54412;51.206;6.888;2023-08-07T08:13:17;14.40;99.90
5246;DHT22;54412;51.206;6.888;2023-08-07T08:15:43;14.40;99.90
5246;DHT22;54412;51.206;6.888;2023-08-07T08:18:10;14.30;99.90
5246;DHT22;54412;51.206;6.888;2023-08-07T08:20:37;14.40;99.90
5246;DHT22;54412;51.206;6.888;2023-08-07T08:23:04;14.50;99.90
5246;DHT22;54412;51.206;6.888;2023-08-07T08:25:30;14.40;99.90
5246;DHT22;54412;51.206;6.888;2023-08-07T08:27:58;14.50;99.90
5246;DHT22;54412;51.206;6.888;2023-08-07T08:30:23;14.50;99.90
5246;DHT22;54412;51.206;6.888;2023-08-07T08:32:49;14.30;99.90
5246;DHT22;54412;51.206;6.888;2023-08-07T08:35:15;14.40;99.90
5246;DHT22;54412;51.206;6.888;2023-08-07T08:37:40;14.50;99.90
5246;DHT22;54412;51.206;6.888;2023-08-07T08:40:08;14.50;99.90
5246;DHT22;54412;51.206;6.888;2023-08-07T08:42:39;14.60;99.90
5246;DHT22;54412;51.206;6.888;2023-08-07T08:45:08;14.60;99.90
5246;DHT22;54412;51.206;6.888;2023-08-07T08:47:38;14.50;99.90
5246;DHT22;54412;51.206;6.888;2023-08-07T08:50:08;14.60;99.90
5246;DHT22;54412;51.206;6.888;2023-08-07T08:52:37;14.70;99.90
5246;DHT22;54412;51.206;6.888;2023-08-07T08:55:07;14.70;99.90
5246;DHT22;54412;51.206;6.888;2023-08-07T08:57:35;14.80;99.90
5246;DHT22;54412;51.206;6.888;2023-08-07T09:00:03;14.80;99.90
5246;DHT22;54412;51.206;6.888;2023-08-07T09:02:36;14.90;99.90
5246;DHT22;54412;51.206;6.888;2023-08-07T09:05:02;14.90;99.90
5246;DHT22;54412;51.206;6.888;2023-08-07T09:07:28;14.90;99.90
5246;DHT22;54412;51.206;6.888;2023-08-07T09:09:56;15.10;99.90
5246;DHT22;54412;51.206;6.888;2023-08-07T09:12:26;15.10;99.90
5246;DHT22;54412;51.206;6.888;2023-08-07T09:14:57;15.20;99.90
5246;DHT22;54412;51.206;6.888;2023-08-07T09:17:26;15.50;99.90
5246;DHT22;54412;51.206;6.888;2023-08-07T09:19:53;15.50;99.90
5246;DHT22;54412;51.206;6.888;2023-08-07T09:22:19;15.70;99.90
5246;DHT22;54412;51.206;6.888;2023-08-07T09:24:45;15.90;99.90
5246;DHT22;54412;51.206;6.888;2023-08-07T09:27:12;16.30;99.90
5246;DHT22;54412;51.206;6.888;2023-08-07T09:29:39;16.40;99.90
5246;DHT22;54412;51.206;6.888;2023-08-07T09:32:07;16.20;99.90
5246;DHT22;54412;51.206;6.888;2023-08-07T09:34:34;15.90;99.90
5246;DHT22;54412;51.206;6.888;2023-08-07T09:37:00;15.60;99.90
5246;DHT22;54412;51.206;6.888;2023-08-07T09:39:26;15.40;99.90
5246;DHT22;54412;51.206;6.888;2023-08-07T09:41:52;15.40;99.90
5246;DHT22;54412;51.206;6.888;2023-08-07T09:44:18;15.40;99.90
5246;DHT22;54412;51.206;6.888;2023-08-07T09:46:44;15.40;99.90
5246;DHT22;54412;51.206;6.888;2023-08-07T09:49:10;15.50;99.90
5246;DHT22;54412;51.206;6.888;2023-08-07T09:51:43;15.50;99.90
5246;DHT22;54412;51.206;6.888;2023-08-07T09:54:10;15.70;99.90
5246;DHT22;54412;51.206;6.888;2023-08-07T09:56:37;15.80;99.90
5246;DHT22;54412;51.206;6.888;2023-08-07T09:59:06;15.90;99.90
5246;DHT22;54412;51.206;6.888;2023-08-07T10:01:32;15.80;99.90
5246;DHT22;54412;51.206;6.888;2023-08-07T10:04:01;15.90;99.90
5246;DHT22;54412;51.206;6.888;2023-08-07T10:06:27;15.50;99.90
5246;DHT22;54412;51.206;6.888;2023-08-07T10:08:54;15.60;99.90
5246;DHT22;54412;51.206;6.888;2023-08-07T10:11:20;15.60;99.90
5246;DHT22;54412;51.206;6.888;2023-08-07T10:13:47;15.70;99.90
5246;DHT22;54412;51.206;6.888;2023-08-07T10:16:13;15.70;99.90
5246;DHT22;54412;51.206;6.888;2023-08-07T10:18:39;15.80;99.90
5246;DHT22;54412;51.206;6.888;2023-08-07T10:21:06;16.00;99.90
5246;DHT22;54412;51.206;6.888;2023-08-07T10:23:36;16.30;99.90
5246;DHT22;54412;51.206;6.888;2023-08-07T10:26:06;16.40;99.90
5246;DHT22;54412;51.206;6.888;2023-08-07T10:28:37;16.70;99.90
5246;DHT22;54412;51.206;6.888;2023-08-07T10:31:07;17.10;99.90
5246;DHT22;54412;51.206;6.888;2023-08-07T10:33:35;17.50;99.90
5246;DHT22;54412;51.206;6.888;2023-08-07T10:36:08;17.80;99.90
5246;DHT22;54412;51.206;6.888;2023-08-07T10:38:35;17.80;99.90
5246;DHT22;54412;51.206;6.888;2023-08-07T10:41:12;17.70;99.90
5246;DHT22;54412;51.206;6.888;2023-08-07T10:43:43;17.60;99.90
5246;DHT22;54412;51.206;6.888;2023-08-07T10:46:12;17.60;99.90
5246;DHT22;54412;51.206;6.888;2023-08-07T10:48:44;17.80;99.90
5246;DHT22;54412;51.206;6.888;2023-08-07T10:51:13;18.00;99.90
5246;DHT22;54412;51.206;6.888;2023-08-07T10:53:42;17.90;99.90
5246;DHT22;54412;51.206;6.888;2023-08-07T10:56:17;17.70;99.90
5246;DHT22;54412;51.206;6.888;2023-08-07T10:58:57;18.00;99.90
5246;DHT22;54412;51.206;6.888;2023-08-07T11:01:40;18.10;99.90
5246;DHT22;54412;51.206;6.888;2023-08-07T11:04:09;18.20;99.90
5246;DHT22;54412;51.206;6.888;2023-08-07T11:06:41;17.80;99.90
5246;DHT22;54412;51.206;6.888;2023-08-07T11:09:09;17.60;99.90
5246;DHT22;54412;51.206;6.888;2023-08-07T11:11:41;17.60;99.90
5246;DHT22;54412;51.206;6.888;2023-08-07T11:14:18;17.60;99.90
5246;DHT22;54412;51.206;6.888;2023-08-07T11:16:46;18.10;99.90
5246;DHT22;54412;51.206;6.888;2023-08-07T11:19:14;18.40;99.90
5246;DHT22;54412;51.206;6.888;2023-08-07T11:21:42;18.80;99.90
5246;DHT22;54412;51.206;6.888;2023-08-07T11:24:13;19.20;99.90
5246;DHT22;54412;51.206;6.888;2023-08-07T11:26:43;19.40;99.90
5246;DHT22;54412;51.206;6.888;2023-08-07T11:29:09;19.30;99.90
5246;DHT22;54412;51.206;6.888;2023-08-07T11:31:35;19.40;99.90
5246;DHT22;54412;51.206;6.888;2023-08-07T11:34:01;19.60;99.90
5246;DHT22;54412;51.206;6.888;2023-08-07T11:36:28;19.80;99.90
5246;DHT22;54412;51.206;6.888;2023-08-07T11:38:54;19.90;99.90
5246;DHT22;54412;51.206;6.888;2023-08-07T11:41:20;19.90;99.90
5246;DHT22;54412;51.206;6.888;2023-08-07T11:43:47;19.90;99.90
5246;DHT22;54412;51.206;6.888;2023-08-07T11:46:14;19.80;99.90
5246;DHT22;54412;51.206;6.888;2023-08-07T11:48:42;19.50;99.90
5246;DHT22;54412;51.206;6.888;2023-08-07T11:51:09;19.30;99.90
5246;DHT22;54412;51.206;6.888;2023-08-07T11:53:37;19.10;99.90
5246;DHT22;54412;51.206;6.888;2023-08-07T11:56:06;18.70;99.90
5246;DHT22;54412;51.206;6.888;2023-08-07T11:58:44;18.70;99.90
5246;DHT22;54412;51.206;6.888;2023-08-07T12:01:16;18.50;99.90
5246;DHT22;54412;51.206;6.888;2023-08-07T12:03:56;18.60;99.90
5246;DHT22;54412;51.206;6.888;2023-08-07T12:06:34;18.50;99.90
5246;DHT22;54412;51.206;6.888;2023-08-07T12:09:07;18.40;99.90
5246;DHT22;54412;51.206;6.888;2023-08-07T12:11:38;18.40;99.90
5246;DHT22;54412;51.206;6.888;2023-08-07T12:14:04;18.40;99.90
5246;DHT22;54412;51.206;6.888;2023-08-07T12:16:34;18.50;99.90
5246;DHT22;54412;51.206;6.888;2023-08-07T12:19:01;18.40;99.90
5246;DHT22;54412;51.206;6.888;2023-08-07T12:21:29;18.40;99.90
5246;DHT22;54412;51.206;6.888;2023-08-07T12:23:59;18.70;99.90
5246;DHT22;54412;51.206;6.888;2023-08-07T12:26:24;19.10;99.90
5246;DHT22;54412;51.206;6.888;2023-08-07T12:28:50;19.00;99.90
5246;DHT22;54412;51.206;6.888;2023-08-07T12:31:18;19.10;99.90
5246;DHT22;54412;51.206;6.888;2023-08-07T12:33:44;19.50;99.90
5246;DHT22;54412;51.206;6.888;2023-08-07T12:36:09;19.80;99.90
5246;DHT22;54412;51.206;6.888;2023-08-07T12:38:36;20.00;99.90
5246;DHT22;54412;51.206;6.888;2023-08-07T12:41:01;20.00;99.90
5246;DHT22;54412;51.206;6.888;2023-08-07T12:43:28;20.00;99.90
5246;DHT22;54412;51.206;6.888;2023-08-07T12:45:54;19.80;99.90
5246;DHT22;54412;51.206;6.888;2023-08-07T12:48:20;19.80;99.90
5246;DHT22;54412;51.206;6.888;2023-08-07T12:50:46;19.50;99.90
5246;DHT22;54412;51.206;6.888;2023-08-07T12:53:11;19.50;99.90
5246;DHT22;54412;51.206;6.888;2023-08-07T12:55:37;19.90;99.90
5246;DHT22;54412;51.206;6.888;2023-08-07T12:58:03;20.20;99.90
5246;DHT22;54412;51.206;6.888;2023-08-07T13:00:28;20.10;99.90
5246;DHT22;54412;51.206;6.888;2023-08-07T13:02:54;19.80;99.90
5246;DHT22;54412;51.206;6.888;2023-08-07T13:05:21;19.70;99.90
5246;DHT22;54412;51.206;6.888;2023-08-07T13:07:48;19.50;99.90
5246;DHT22;54412;51.206;6.888;2023-08-07T13:10:16;19.60;99.90
5246;DHT22;54412;51.206;6.888;2023-08-07T13:12:43;20.00;99.90
5246;DHT22;54412;51.206;6.888;2023-08-07T13:15:13;20.10;99.90
5246;DHT22;54412;51.206;6.888;2023-08-07T13:17:40;20.00;99.90
5246;DHT22;54412;51.206;6.888;2023-08-07T13:20:07;19.70;99.90
5246;DHT22;54412;51.206;6.888;2023-08-07T13:22:40;19.40;99.90
5246;DHT22;54412;51.206;6.888;2023-08-07T13:25:08;19.30;99.90
5246;DHT22;54412;51.206;6.888;2023-08-07T13:27:35;19.30;99.90
5246;DHT22;54412;51.206;6.888;2023-08-07T13:30:02;19.30;99.90
5246;DHT22;54412;51.206;6.888;2023-08-07T13:32:28;19.60;99.90
5246;DHT22;54412;51.206;6.888;2023-08-07T13:34:54;20.10;99.90
5246;DHT22;54412;51.206;6.888;2023-08-07T13:37:20;20.00;99.90
5246;DHT22;54412;51.206;6.888;2023-08-07T13:39:46;20.20;99.90
5246;DHT22;54412;51.206;6.888;2023-08-07T13:42:17;20.50;99.90
5246;DHT22;54412;51.206;6.888;2023-08-07T13:44:43;20.80;99.90
5246;DHT22;54412;51.206;6.888;2023-08-07T13:47:09;20.90;99.90
5246;DHT22;54412;51.206;6.888;2023-08-07T13:49:36;21.00;99.90
5246;DHT22;54412;51.206;6.888;2023-08-07T13:52:03;21.10;99.90
5246;DHT22;54412;51.206;6.888;2023-08-07T13:54:29;21.10;99.90
5246;DHT22;54412;51.206;6.888;2023-08-07T13:56:54;21.30;99.90
5246;DHT22;54412;51.206;6.888;2023-08-07T13:59:20;21.40;99.90
5246;DHT22;54412;51.206;6.888;2023-08-07T14:01:46;21.50;99.90
5246;DHT22;54412;51.206;6.888;2023-08-07T14:04:11;21.50;99.90
5246;DHT22;54412;51.206;6.888;2023-08-07T14:06:39;21.50;99.90
5246;DHT22;54412;51.206;6.888;2023-08-07T14:09:06;21.40;99.90
5246;DHT22;54412;51.206;6.888;2023-08-07T14:11:31;21.50;99.90
5246;DHT22;54412;51.206;6.888;2023-08-07T14:13:57;21.30;99.90
5246;DHT22;54412;51.206;6.888;2023-08-07T14:16:24;21.20;99.90
5246;DHT22;54412;51.206;6.888;2023-08-07T14:18:50;21.20;99.90
5246;DHT22;54412;51.206;6.888;2023-08-07T14:21:16;21.00;99.90
5246;DHT22;54412;51.206;6.888;2023-08-07T14:23:42;20.90;99.90
5246;DHT22;54412;51.206;6.888;2023-08-07T14:26:10;21.10;99.90
5246;DHT22;54412;51.206;6.888;2023-08-07T14:28:37;21.20;99.90
5246;DHT22;54412;51.206;6.888;2023-08-07T14:31:06;20.90;99.90
5246;DHT22;54412;51.206;6.888;2023-08-07T14:33:33;20.80;99.90
5246;DHT22;54412;51.206;6.888;2023-08-07T14:35:59;20.50;99.90
5246;DHT22;54412;51.206;6.888;2023-08-07T14:38:26;20.30;99.90
5246;DHT22;54412;51.206;6.888;2023-08-07T14:40:51;19.90;99.90
5246;DHT22;54412;51.206;6.888;2023-08-07T14:43:17;19.60;99.90
5246;DHT22;54412;51.206;6.888;2023-08-07T14:45:43;19.60;99.90
5246;DHT22;54412;51.206;6.888;2023-08-07T14:48:09;19.70;99.90
5246;DHT22;54412;51.206;6.888;2023-08-07T14:50:34;19.60;99.90
5246;DHT22;54412;51.206;6.888;2023-08-07T14:53:00;19.60;99.90
5246;DHT22;54412;51.206;6.888;2023-08-07T14:55:26;19.70;99.90
5246;DHT22;54412;51.206;6.888;2023-08-07T14:57:51;19.40;99.90
5246;DHT22;54412;51.206;6.888;2023-08-07T15:00:17;19.40;99.90
5246;DHT22;54412;51.206;6.888;2023-08-07T15:02:45;19.40;99.90
5246;DHT22;54412;51.206;6.888;2023-08-07T15:05:11;19.40;99.90
5246;DHT22;54412;51.206;6.888;2023-08-07T15:07:36;19.50;99.90
5246;DHT22;54412;51.206;6.888;2023-08-07T15:10:02;19.60;99.90
5246;DHT22;54412;51.206;6.888;2023-08-07T15:12:28;19.70;99.90
5246;DHT22;54412;51.206;6.888;2023-08-07T15:14:54;19.50;99.90
5246;DHT22;54412;51.206;6.888;2023-08-07T15:17:19;19.60;99.90
5246;DHT22;54412;51.206;6.888;2023-08-07T15:19:45;19.80;99.90
5246;DHT22;54412;51.206;6.888;2023-08-07T15:22:11;19.90;99.90
5246;DHT22;54412;51.206;6.888;2023-08-07T15:24:36;19.80;99.90
5246;DHT22;54412;51.206;6.888;2023-08-07T15:27:02;19.70;99.90
5246;DHT22;54412;51.206;6.888;2023-08-07T15:29:28;19.80;99.90
5246;DHT22;54412;51.206;6.888;2023-08-07T15:31:54;19.70;99.90
5246;DHT22;54412;51.206;6.888;2023-08-07T15:34:19;19.70;99.90
5246;DHT22;54412;51.206;6.888;2023-08-07T15:36:45;19.70;99.90
5246;DHT22;54412;51.206;6.888;2023-08-07T15:39:11;19.60;99.90
5246;DHT22;54412;51.206;6.888;2023-08-07T15:41:37;19.50;99.90
5246;DHT22;54412;51.206;6.888;2023-08-07T15:44:03;19.20;99.90
5246;DHT22;54412;51.206;6.888;2023-08-07T15:46:28;19.00;99.90
5246;DHT22;54412;51.206;6.888;2023-08-07T15:48:55;18.90;99.90
5246;DHT22;54412;51.206;6.888;2023-08-07T15:51:21;18.90;99.90